sensor_id;sensor_type;location;lat;lon;timestamp;pressure;altitude;pressure_sealevel;temperature;humidity
706;BME280;21234;48.690;9.016;2023-04-21T00:01:46;95732.16;;;4.59;100.00
706;BME280;21234;48.690;9.016;2023-04-21T00:04:13;95730.84;;;4.50;100.00
706;BME280;21234;48.690;9.016;2023-04-21T00:06:39;95732.03;;;4.36;100.00
706;BME280;21234;48.690;9.016;2023-04-21T00:09:07;95729.03;;;4.26;100.00
706;BME280;21234;48.690;9.016;2023-04-21T00:11:36;95734.84;;;4.23;100.00
706;BME280;21234;48.690;9.016;2023-04-21T00:14:03;95726.66;;;4.18;100.00
706;BME280;21234;48.690;9.016;2023-04-21T00:16:30;95721.50;;;4.16;100.00
706;BME280;21234;48.690;9.016;2023-04-21T00:18:56;95721.94;;;4.13;100.00
706;BME280;21234;48.690;9.016;2023-04-21T00:21:23;95721.13;;;4.13;100.00
706;BME280;21234;48.690;9.016;2023-04-21T00:23:51;95721.72;;;4.15;100.00
706;BME280;21234;48.690;9.016;2023-04-21T00:26:17;95720.28;;;4.12;100.00
706;BME280;21234;48.690;9.016;2023-04-21T00:28:46;95724.03;;;4.11;100.00
706;BME280;21234;48.690;9.016;2023-04-21T00:31:13;95708.25;;;4.15;100.00
706;BME280;21234;48.690;9.016;2023-04-21T00:33:39;95700.19;;;4.15;100.00
706;BME280;21234;48.690;9.016;2023-04-21T00:36:06;95698.56;;;4.14;100.00
706;BME280;21234;48.690;9.016;2023-04-21T00:38:33;95704.16;;;4.12;100.00
706;BME280;21234;48.690;9.016;2023-04-21T00:41:00;95699.81;;;4.11;100.00
706;BME280;21234;48.690;9.016;2023-04-21T00:43:27;95703.31;;;4.12;100.00
706;BME280;21234;48.690;9.016;2023-04-21T00:45:55;95698.94;;;4.17;100.00
706;BME280;21234;48.690;9.016;2023-04-21T00:48:21;95692.78;;;4.10;100.00
706;BME280;21234;48.690;9.016;2023-04-21T00:50:48;95707.28;;;4.09;100.00
706;BME280;21234;48.690;9.016;2023-04-21T00:53:15;95715.56;;;4.08;100.00
706;BME280;21234;48.690;9.016;2023-04-21T00:55:42;95706.47;;;4.09;100.00
706;BME280;21234;48.690;9.016;2023-04-21T00:58:09;95702.13;;;4.08;100.00
706;BME280;21234;48.690;9.016;2023-04-21T01:00:37;95700.25;;;4.08;100.00
706;BME280;21234;48.690;9.016;2023-04-21T01:03:05;95698.63;;;4.07;100.00
706;BME280;21234;48.690;9.016;2023-04-21T01:05:32;95698.63;;;4.07;100.00
706;BME280;21234;48.690;9.016;2023-04-21T01:08:00;95696.59;;;4.02;100.00
706;BME280;21234;48.690;9.016;2023-04-21T01:10:27;95693.75;;;3.97;100.00
706;BME280;21234;48.690;9.016;2023-04-21T01:12:54;95693.53;;;3.99;100.00
706;BME280;21234;48.690;9.016;2023-04-21T01:15:21;95691.22;;;4.02;100.00
706;BME280;21234;48.690;9.016;2023-04-21T01:17:47;95690.91;;;3.92;100.00
706;BME280;21234;48.690;9.016;2023-04-21T01:20:15;95693.59;;;3.92;100.00
706;BME280;21234;48.690;9.016;2023-04-21T01:22:43;95694.19;;;3.94;100.00
706;BME280;21234;48.690;9.016;2023-04-21T01:25:11;95691.72;;;3.93;100.00
706;BME280;21234;48.690;9.016;2023-04-21T01:27:38;95694.41;;;3.93;100.00
706;BME280;21234;48.690;9.016;2023-04-21T01:30:05;95692.25;;;3.83;100.00
706;BME280;21234;48.690;9.016;2023-04-21T01:32:33;95693.91;;;3.84;100.00
706;BME280;21234;48.690;9.016;2023-04-21T01:35:00;95700.97;;;3.79;100.00
706;BME280;21234;48.690;9.016;2023-04-21T01:37:29;95701.41;;;3.76;100.00
706;BME280;21234;48.690;9.016;2023-04-21T01:39:59;95706.41;;;3.72;100.00
706;BME280;21234;48.690;9.016;2023-04-21T01:42:28;95709.75;;;3.67;100.00
706;BME280;21234;48.690;9.016;2023-04-21T01:44:55;95700.88;;;3.67;100.00
706;BME280;21234;48.690;9.016;2023-04-21T01:47:23;95698.63;;;3.64;100.00
706;BME280;21234;48.690;9.016;2023-04-21T01:49:49;95694.06;;;3.64;100.00
706;BME280;21234;48.690;9.016;2023-04-21T01:52:16;95701.53;;;3.62;100.00
706;BME280;21234;48.690;9.016;2023-04-21T01:54:43;95700.88;;;3.67;100.00
706;BME280;21234;48.690;9.016;2023-04-21T01:57:11;95692.81;;;3.67;100.00
706;BME280;21234;48.690;9.016;2023-04-21T01:59:38;95693.19;;;3.70;100.00
706;BME280;21234;48.690;9.016;2023-04-21T02:02:04;95692.16;;;3.71;100.00
706;BME280;21234;48.690;9.016;2023-04-21T02:04:31;95694.78;;;3.78;100.00
706;BME280;21234;48.690;9.016;2023-04-21T02:06:58;95700.47;;;3.88;100.00
706;BME280;21234;48.690;9.016;2023-04-21T02:09:25;95701.06;;;3.90;100.00
706;BME280;21234;48.690;9.016;2023-04-21T02:11:54;95708.38;;;3.83;100.00
706;BME280;21234;48.690;9.016;2023-04-21T02:14:22;95703.13;;;3.70;100.00
706;BME280;21234;48.690;9.016;2023-04-21T02:16:49;95704.75;;;3.53;100.00
706;BME280;21234;48.690;9.016;2023-04-21T02:19:16;95696.72;;;3.46;100.00
706;BME280;21234;48.690;9.016;2023-04-21T02:21:42;95690.91;;;3.49;100.00
706;BME280;21234;48.690;9.016;2023-04-21T02:24:09;95692.06;;;3.35;100.00
706;BME280;21234;48.690;9.016;2023-04-21T02:26:36;95690.34;;;3.41;100.00
706;BME280;21234;48.690;9.016;2023-04-21T02:29:02;95685.91;;;3.28;100.00
706;BME280;21234;48.690;9.016;2023-04-21T02:31:30;95693.81;;;3.48;100.00
706;BME280;21234;48.690;9.016;2023-04-21T02:33:57;95697.59;;;3.40;100.00
706;BME280;21234;48.690;9.016;2023-04-21T02:36:24;95697.09;;;3.50;100.00
706;BME280;21234;48.690;9.016;2023-04-21T02:38:50;95687.28;;;3.37;100.00
706;BME280;21234;48.690;9.016;2023-04-21T02:41:17;95694.84;;;3.47;100.00
706;BME280;21234;48.690;9.016;2023-04-21T02:43:44;95699.91;;;3.36;100.00
706;BME280;21234;48.690;9.016;2023-04-21T02:46:10;95694.75;;;3.35;100.00
706;BME280;21234;48.690;9.016;2023-04-21T02:48:38;95711.34;;;3.25;100.00
706;BME280;21234;48.690;9.016;2023-04-21T02:51:10;95704.34;;;3.24;100.00
706;BME280;21234;48.690;9.016;2023-04-21T02:53:37;95707.97;;;3.36;100.00
706;BME280;21234;48.690;9.016;2023-04-21T02:56:05;95704.09;;;3.26;100.00
706;BME280;21234;48.690;9.016;2023-04-21T02:58:32;95710.16;;;3.21;100.00
706;BME280;21234;48.690;9.016;2023-04-21T03:00:59;95702.09;;;2.90;100.00
706;BME280;21234;48.690;9.016;2023-04-21T03:03:26;95699.09;;;3.04;100.00
706;BME280;21234;48.690;9.016;2023-04-21T03:05:56;95689.50;;;2.90;100.00
706;BME280;21234;48.690;9.016;2023-04-21T03:08:23;95682.16;;;2.73;100.00
706;BME280;21234;48.690;9.016;2023-04-21T03:10:50;95681.16;;;2.67;100.00
706;BME280;21234;48.690;9.016;2023-04-21T03:13:16;95687.44;;;2.54;100.00
706;BME280;21234;48.690;9.016;2023-04-21T03:15:43;95682.84;;;2.61;100.00
706;BME280;21234;48.690;9.016;2023-04-21T03:18:10;95675.78;;;2.67;100.00
706;BME280;21234;48.690;9.016;2023-04-21T03:20:37;95681.47;;;2.52;100.00
706;BME280;21234;48.690;9.016;2023-04-21T03:23:05;95685.19;;;2.51;100.00
706;BME280;21234;48.690;9.016;2023-04-21T03:25:32;95690.53;;;2.58;100.00
706;BME280;21234;48.690;9.016;2023-04-21T03:27:59;95687.88;;;2.51;100.00
706;BME280;21234;48.690;9.016;2023-04-21T03:30:25;95680.28;;;2.42;100.00
706;BME280;21234;48.690;9.016;2023-04-21T03:32:52;95688.53;;;2.40;100.00
706;BME280;21234;48.690;9.016;2023-04-21T03:35:19;95688.16;;;2.30;100.00
706;BME280;21234;48.690;9.016;2023-04-21T03:37:46;95695.53;;;2.41;100.00
706;BME280;21234;48.690;9.016;2023-04-21T03:40:15;95692.44;;;2.44;100.00
706;BME280;21234;48.690;9.016;2023-04-21T03:42:42;95679.75;;;2.26;100.00
706;BME280;21234;48.690;9.016;2023-04-21T03:45:09;95679.91;;;2.31;100.00
706;BME280;21234;48.690;9.016;2023-04-21T03:47:36;95688.94;;;2.37;100.00
706;BME280;21234;48.690;9.016;2023-04-21T03:50:03;95685.66;;;2.35;100.00
706;BME280;21234;48.690;9.016;2023-04-21T03:52:30;95687.72;;;2.33;100.00
706;BME280;21234;48.690;9.016;2023-04-21T03:54:57;95695.38;;;2.29;100.00
706;BME280;21234;48.690;9.016;2023-04-21T03:57:25;95685.03;;;2.33;100.00
706;BME280;21234;48.690;9.016;2023-04-21T03:59:52;95689.34;;;2.41;100.00
706;BME280;21234;48.690;9.016;2023-04-21T04:02:19;95678.97;;;2.57;100.00
706;BME280;21234;48.690;9.016;2023-04-21T04:04:45;95673.75;;;2.62;100.00
706;BME280;21234;48.690;9.016;2023-04-21T04:07:12;95676.72;;;2.54;100.00
706;BME280;21234;48.690;9.016;2023-04-21T04:09:38;95685.38;;;2.56;100.00
706;BME280;21234;48.690;9.016;2023-04-21T04:12:05;95672.44;;;2.40;100.00
706;BME280;21234;48.690;9.016;2023-04-21T04:14:34;95674.66;;;2.50;100.00
706;BME280;21234;48.690;9.016;2023-04-21T04:17:00;95679.63;;;2.46;100.00
706;BME280;21234;48.690;9.016;2023-04-21T04:19:29;95692.06;;;2.34;100.00
706;BME280;21234;48.690;9.016;2023-04-21T04:21:57;95696.25;;;2.23;100.00
706;BME280;21234;48.690;9.016;2023-04-21T04:24:24;95688.16;;;2.30;100.00
706;BME280;21234;48.690;9.016;2023-04-21T04:26:52;95687.69;;;2.46;100.00
706;BME280;21234;48.690;9.016;2023-04-21T04:29:19;95693.28;;;2.38;100.00
706;BME280;21234;48.690;9.016;2023-04-21T04:31:48;95692.00;;;2.47;100.00
706;BME280;21234;48.690;9.016;2023-04-21T04:34:15;95688.28;;;2.48;100.00
706;BME280;21234;48.690;9.016;2023-04-21T04:36:42;95687.28;;;2.43;100.00
706;BME280;21234;48.690;9.016;2023-04-21T04:39:08;95693.63;;;2.55;100.00
706;BME280;21234;48.690;9.016;2023-04-21T04:41:37;95684.59;;;2.43;100.00
706;BME280;21234;48.690;9.016;2023-04-21T04:44:04;95679.22;;;2.49;100.00
706;BME280;21234;48.690;9.016;2023-04-21T04:46:31;95686.00;;;2.52;100.00
706;BME280;21234;48.690;9.016;2023-04-21T04:48:59;95683.31;;;2.52;100.00
706;BME280;21234;48.690;9.016;2023-04-21T04:51:26;95690.66;;;2.69;100.00
706;BME280;21234;48.690;9.016;2023-04-21T04:53:52;95690.66;;;2.69;100.00
706;BME280;21234;48.690;9.016;2023-04-21T04:56:19;95695.28;;;2.56;100.00
706;BME280;21234;48.690;9.016;2023-04-21T04:58:47;95695.22;;;2.62;100.00
706;BME280;21234;48.690;9.016;2023-04-21T05:01:13;95695.09;;;2.51;100.00
706;BME280;21234;48.690;9.016;2023-04-21T05:03:41;95690.97;;;2.48;100.00
706;BME280;21234;48.690;9.016;2023-04-21T05:06:09;95701.06;;;2.53;100.00
706;BME280;21234;48.690;9.016;2023-04-21T05:08:38;95706.00;;;2.56;100.00
706;BME280;21234;48.690;9.016;2023-04-21T05:11:06;95711.53;;;2.61;100.00
706;BME280;21234;48.690;9.016;2023-04-21T05:13:32;95715.53;;;2.52;100.00
706;BME280;21234;48.690;9.016;2023-04-21T05:15:59;95714.47;;;2.59;100.00
706;BME280;21234;48.690;9.016;2023-04-21T05:18:26;95719.78;;;2.66;100.00
706;BME280;21234;48.690;9.016;2023-04-21T05:20:53;95715.63;;;2.70;100.00
706;BME280;21234;48.690;9.016;2023-04-21T05:23:22;95725.53;;;2.69;100.00
706;BME280;21234;48.690;9.016;2023-04-21T05:25:49;95726.75;;;2.74;100.00
706;BME280;21234;48.690;9.016;2023-04-21T05:28:15;95735.59;;;2.81;100.00
706;BME280;21234;48.690;9.016;2023-04-21T05:30:42;95739.25;;;2.93;100.00
706;BME280;21234;48.690;9.016;2023-04-21T05:33:09;95732.63;;;2.95;100.00
706;BME280;21234;48.690;9.016;2023-04-21T05:35:36;95725.50;;;3.14;100.00
706;BME280;21234;48.690;9.016;2023-04-21T05:38:03;95737.44;;;3.18;100.00
706;BME280;21234;48.690;9.016;2023-04-21T05:40:31;95729.78;;;3.22;100.00
706;BME280;21234;48.690;9.016;2023-04-21T05:42:58;95731.44;;;3.23;100.00
706;BME280;21234;48.690;9.016;2023-04-21T05:45:24;95727.75;;;3.42;100.00
706;BME280;21234;48.690;9.016;2023-04-21T05:47:51;95724.97;;;3.55;100.00
706;BME280;21234;48.690;9.016;2023-04-21T05:50:18;95722.44;;;3.60;100.00
706;BME280;21234;48.690;9.016;2023-04-21T05:52:44;95727.06;;;3.53;100.00
706;BME280;21234;48.690;9.016;2023-04-21T05:55:11;95723.16;;;3.49;100.00
706;BME280;21234;48.690;9.016;2023-04-21T05:57:39;95717.66;;;3.62;100.00
706;BME280;21234;48.690;9.016;2023-04-21T06:00:07;95720.69;;;3.48;100.00
706;BME280;21234;48.690;9.016;2023-04-21T06:02:34;95723.38;;;3.48;100.00
706;BME280;21234;48.690;9.016;2023-04-21T06:05:00;95718.03;;;3.66;100.00
706;BME280;21234;48.690;9.016;2023-04-21T06:07:27;95718.47;;;3.63;100.00
706;BME280;21234;48.690;9.016;2023-04-21T06:09:54;95711.72;;;3.79;100.00
706;BME280;21234;48.690;9.016;2023-04-21T06:12:22;95710.41;;;3.88;100.00
706;BME280;21234;48.690;9.016;2023-04-21T06:14:50;95700.31;;;3.83;100.00
706;BME280;21234;48.690;9.016;2023-04-21T06:17:16;95711.81;;;3.90;100.00
706;BME280;21234;48.690;9.016;2023-04-21T06:19:43;95710.19;;;3.89;100.00
706;BME280;21234;48.690;9.016;2023-04-21T06:22:10;95714.81;;;3.82;100.00
706;BME280;21234;48.690;9.016;2023-04-21T06:24:37;95716.31;;;3.96;100.00
706;BME280;21234;48.690;9.016;2023-04-21T06:27:09;95710.56;;;4.11;100.00
706;BME280;21234;48.690;9.016;2023-04-21T06:29:36;95718.88;;;4.10;100.00
706;BME280;21234;48.690;9.016;2023-04-21T06:32:05;95718.44;;;4.13;100.00
706;BME280;21234;48.690;9.016;2023-04-21T06:34:31;95719.53;;;4.23;100.00
706;BME280;21234;48.690;9.016;2023-04-21T06:36:58;95723.88;;;4.24;100.00
706;BME280;21234;48.690;9.016;2023-04-21T06:39:25;95723.88;;;4.24;100.00
706;BME280;21234;48.690;9.016;2023-04-21T06:41:52;95712.66;;;4.46;100.00
706;BME280;21234;48.690;9.016;2023-04-21T06:44:19;95708.72;;;4.78;100.00
706;BME280;21234;48.690;9.016;2023-04-21T06:46:46;95695.44;;;5.36;100.00
706;BME280;21234;48.690;9.016;2023-04-21T06:49:14;95699.34;;;5.64;100.00
706;BME280;21234;48.690;9.016;2023-04-21T06:51:40;95703.47;;;6.25;98.86
706;BME280;21234;48.690;9.016;2023-04-21T06:54:07;95701.13;;;6.28;97.04
706;BME280;21234;48.690;9.016;2023-04-21T06:56:34;95703.84;;;6.17;95.96
706;BME280;21234;48.690;9.016;2023-04-21T06:59:01;95700.09;;;6.06;96.32
706;BME280;21234;48.690;9.016;2023-04-21T07:01:28;95700.44;;;5.98;97.56
706;BME280;21234;48.690;9.016;2023-04-21T07:03:54;95699.81;;;6.31;96.90
706;BME280;21234;48.690;9.016;2023-04-21T07:06:22;95703.47;;;6.36;95.52
706;BME280;21234;48.690;9.016;2023-04-21T07:08:49;95706.63;;;6.45;96.35
706;BME280;21234;48.690;9.016;2023-04-21T07:11:15;95700.41;;;7.13;93.74
706;BME280;21234;48.690;9.016;2023-04-21T07:13:42;95695.53;;;6.98;92.04
706;BME280;21234;48.690;9.016;2023-04-21T07:16:09;95693.25;;;6.79;94.31
706;BME280;21234;48.690;9.016;2023-04-21T07:18:38;95696.81;;;6.67;95.34
706;BME280;21234;48.690;9.016;2023-04-21T07:21:05;95695.63;;;6.75;94.62
706;BME280;21234;48.690;9.016;2023-04-21T07:23:33;95694.38;;;6.54;95.05
706;BME280;21234;48.690;9.016;2023-04-21T07:25:59;95692.16;;;6.51;94.45
706;BME280;21234;48.690;9.016;2023-04-21T07:28:26;95696.56;;;6.69;97.54
706;BME280;21234;48.690;9.016;2023-04-21T07:30:53;95695.47;;;6.82;97.50
706;BME280;21234;48.690;9.016;2023-04-21T07:33:21;95693.97;;;7.02;98.02
706;BME280;21234;48.690;9.016;2023-04-21T07:35:47;95690.47;;;7.19;98.57
706;BME280;21234;48.690;9.016;2023-04-21T07:38:14;95696.41;;;7.32;97.12
706;BME280;21234;48.690;9.016;2023-04-21T07:40:43;95692.41;;;7.52;95.66
706;BME280;21234;48.690;9.016;2023-04-21T07:43:10;95692.84;;;7.77;94.86
706;BME280;21234;48.690;9.016;2023-04-21T07:45:36;95690.16;;;8.32;91.75
706;BME280;21234;48.690;9.016;2023-04-21T07:48:03;95695.97;;;9.06;91.66
706;BME280;21234;48.690;9.016;2023-04-21T07:50:30;95682.97;;;9.35;85.77
706;BME280;21234;48.690;9.016;2023-04-21T07:52:57;95682.84;;;9.84;84.26
706;BME280;21234;48.690;9.016;2023-04-21T07:55:24;95680.44;;;9.88;80.46
706;BME280;21234;48.690;9.016;2023-04-21T07:57:52;95676.19;;;10.02;80.70
706;BME280;21234;48.690;9.016;2023-04-21T08:00:19;95684.63;;;10.37;79.66
706;BME280;21234;48.690;9.016;2023-04-21T08:02:46;95678.81;;;10.81;80.04
706;BME280;21234;48.690;9.016;2023-04-21T08:05:12;95669.41;;;11.14;79.10
706;BME280;21234;48.690;9.016;2023-04-21T08:07:39;95667.31;;;11.52;78.81
706;BME280;21234;48.690;9.016;2023-04-21T08:10:07;95662.69;;;11.52;75.64
706;BME280;21234;48.690;9.016;2023-04-21T08:12:34;95666.53;;;11.87;74.50
706;BME280;21234;48.690;9.016;2023-04-21T08:15:02;95663.00;;;11.96;74.38
706;BME280;21234;48.690;9.016;2023-04-21T08:17:32;95658.34;;;12.22;71.22
706;BME280;21234;48.690;9.016;2023-04-21T08:19:59;95661.59;;;12.29;73.38
706;BME280;21234;48.690;9.016;2023-04-21T08:22:25;95658.38;;;12.02;70.89
706;BME280;21234;48.690;9.016;2023-04-21T08:24:52;95662.69;;;12.23;70.51
706;BME280;21234;48.690;9.016;2023-04-21T08:27:19;95664.59;;;12.23;72.23
706;BME280;21234;48.690;9.016;2023-04-21T08:29:45;95660.75;;;12.39;67.80
706;BME280;21234;48.690;9.016;2023-04-21T08:32:13;95664.53;;;12.53;68.74
706;BME280;21234;48.690;9.016;2023-04-21T08:34:41;95656.78;;;12.86;70.83
706;BME280;21234;48.690;9.016;2023-04-21T08:37:09;95651.69;;;12.64;69.05
706;BME280;21234;48.690;9.016;2023-04-21T08:39:36;95659.63;;;12.50;68.01
706;BME280;21234;48.690;9.016;2023-04-21T08:42:03;95657.72;;;12.61;69.71
706;BME280;21234;48.690;9.016;2023-04-21T08:44:30;95666.72;;;12.56;67.16
706;BME280;21234;48.690;9.016;2023-04-21T08:46:57;95656.88;;;12.60;71.01
706;BME280;21234;48.690;9.016;2023-04-21T08:49:28;95653.66;;;12.48;67.78
706;BME280;21234;48.690;9.016;2023-04-21T08:51:55;95651.88;;;12.83;70.27
706;BME280;21234;48.690;9.016;2023-04-21T08:54:22;95662.88;;;12.62;66.81
706;BME280;21234;48.690;9.016;2023-04-21T08:56:48;95659.66;;;12.35;66.74
706;BME280;21234;48.690;9.016;2023-04-21T08:59:15;95657.97;;;12.59;65.95
706;BME280;21234;48.690;9.016;2023-04-21T09:02:10;95650.91;;;12.53;65.08
706;BME280;21234;48.690;9.016;2023-04-21T09:04:39;95660.53;;;12.10;66.67
706;BME280;21234;48.690;9.016;2023-04-21T09:07:06;95658.09;;;11.83;68.41
706;BME280;21234;48.690;9.016;2023-04-21T09:09:44;95652.34;;;12.15;69.95
706;BME280;21234;48.690;9.016;2023-04-21T09:12:17;95659.16;;;12.23;69.09
706;BME280;21234;48.690;9.016;2023-04-21T09:14:43;95655.34;;;12.34;68.37
706;BME280;21234;48.690;9.016;2023-04-21T09:17:10;95652.47;;;12.74;67.97
706;BME280;21234;48.690;9.016;2023-04-21T09:19:38;95656.00;;;12.70;65.99
706;BME280;21234;48.690;9.016;2023-04-21T09:22:05;95646.81;;;13.15;67.11
706;BME280;21234;48.690;9.016;2023-04-21T09:24:31;95648.75;;;13.20;65.30
706;BME280;21234;48.690;9.016;2023-04-21T09:27:01;95646.50;;;13.32;64.18
706;BME280;21234;48.690;9.016;2023-04-21T09:29:28;95649.31;;;13.06;64.71
706;BME280;21234;48.690;9.016;2023-04-21T09:31:55;95641.19;;;12.96;66.10
706;BME280;21234;48.690;9.016;2023-04-21T09:34:24;95632.09;;;13.11;65.59
706;BME280;21234;48.690;9.016;2023-04-21T09:36:59;95636.75;;;13.16;65.36
706;BME280;21234;48.690;9.016;2023-04-21T09:39:28;95635.50;;;13.42;64.27
706;BME280;21234;48.690;9.016;2023-04-21T09:41:55;95639.41;;;13.99;62.61
706;BME280;21234;48.690;9.016;2023-04-21T09:44:23;95637.06;;;13.87;62.16
706;BME280;21234;48.690;9.016;2023-04-21T09:46:49;95639.91;;;13.72;63.24
706;BME280;21234;48.690;9.016;2023-04-21T09:49:17;95633.94;;;13.99;62.61
706;BME280;21234;48.690;9.016;2023-04-21T09:51:44;95629.19;;;13.81;61.33
706;BME280;21234;48.690;9.016;2023-04-21T09:54:15;95625.94;;;13.78;63.86
706;BME280;21234;48.690;9.016;2023-04-21T09:56:43;95615.22;;;13.87;64.41
706;BME280;21234;48.690;9.016;2023-04-21T09:59:24;95612.75;;;13.86;66.81
706;BME280;21234;48.690;9.016;2023-04-21T10:01:52;95620.44;;;13.84;62.05
706;BME280;21234;48.690;9.016;2023-04-21T10:04:19;95613.00;;;13.89;63.67
706;BME280;21234;48.690;9.016;2023-04-21T10:06:46;95608.72;;;14.07;63.71
706;BME280;21234;48.690;9.016;2023-04-21T10:09:17;95612.69;;;13.62;62.15
706;BME280;21234;48.690;9.016;2023-04-21T10:11:46;95613.69;;;13.71;63.51
706;BME280;21234;48.690;9.016;2023-04-21T10:14:13;95608.56;;;13.30;63.40
706;BME280;21234;48.690;9.016;2023-04-21T10:16:41;95610.78;;;13.62;64.75
706;BME280;21234;48.690;9.016;2023-04-21T10:19:24;95614.22;;;13.73;63.47
706;BME280;21234;48.690;9.016;2023-04-21T10:21:54;95615.38;;;13.67;62.92
706;BME280;21234;48.690;9.016;2023-04-21T10:24:22;95608.94;;;13.87;61.16
706;BME280;21234;48.690;9.016;2023-04-21T10:26:50;95603.28;;;14.07;64.55
706;BME280;21234;48.690;9.016;2023-04-21T10:29:27;95600.97;;;14.19;60.44
706;BME280;21234;48.690;9.016;2023-04-21T10:31:54;95604.72;;;14.28;63.44
706;BME280;21234;48.690;9.016;2023-04-21T10:34:27;95603.59;;;14.29;63.16
706;BME280;21234;48.690;9.016;2023-04-21T10:37:11;95606.38;;;14.24;62.51
706;BME280;21234;48.690;9.016;2023-04-21T10:39:59;95596.66;;;14.42;60.59
706;BME280;21234;48.690;9.016;2023-04-21T10:42:33;95595.00;;;14.65;60.12
706;BME280;21234;48.690;9.016;2023-04-21T10:45:09;95593.03;;;14.47;59.55
706;BME280;21234;48.690;9.016;2023-04-21T10:47:40;95590.59;;;14.45;60.57
706;BME280;21234;48.690;9.016;2023-04-21T10:50:22;95589.59;;;14.84;62.45
706;BME280;21234;48.690;9.016;2023-04-21T10:53:07;95580.06;;;14.57;60.85
706;BME280;21234;48.690;9.016;2023-04-21T10:55:38;95588.84;;;14.78;60.47
706;BME280;21234;48.690;9.016;2023-04-21T10:58:07;95583.47;;;14.92;60.02
706;BME280;21234;48.690;9.016;2023-04-21T11:00:35;95584.09;;;14.36;59.41
706;BME280;21234;48.690;9.016;2023-04-21T11:03:04;95587.63;;;14.12;61.67
706;BME280;21234;48.690;9.016;2023-04-21T11:05:33;95585.06;;;14.50;62.65
706;BME280;21234;48.690;9.016;2023-04-21T11:08:04;95586.25;;;14.87;61.72
706;BME280;21234;48.690;9.016;2023-04-21T11:10:46;95578.03;;;14.44;60.64
706;BME280;21234;48.690;9.016;2023-04-21T11:13:13;95592.47;;;14.21;61.32
706;BME280;21234;48.690;9.016;2023-04-21T11:15:40;95584.69;;;14.33;62.11
706;BME280;21234;48.690;9.016;2023-04-21T11:18:07;95573.22;;;14.78;66.18
706;BME280;21234;48.690;9.016;2023-04-21T11:20:38;95578.44;;;15.18;65.24
706;BME280;21234;48.690;9.016;2023-04-21T11:23:06;95574.59;;;15.56;61.93
706;BME280;21234;48.690;9.016;2023-04-21T11:25:32;95577.28;;;15.24;58.66
706;BME280;21234;48.690;9.016;2023-04-21T11:28:00;95577.03;;;15.20;62.00
706;BME280;21234;48.690;9.016;2023-04-21T11:30:32;95566.50;;;15.27;60.78
706;BME280;21234;48.690;9.016;2023-04-21T11:32:59;95565.63;;;15.51;64.51
706;BME280;21234;48.690;9.016;2023-04-21T11:35:26;95561.75;;;15.70;63.14
706;BME280;21234;48.690;9.016;2023-04-21T11:37:54;95568.63;;;15.87;61.22
706;BME280;21234;48.690;9.016;2023-04-21T11:40:20;95562.44;;;15.95;61.06
706;BME280;21234;48.690;9.016;2023-04-21T11:42:47;95560.34;;;16.19;60.84
706;BME280;21234;48.690;9.016;2023-04-21T11:45:18;95571.88;;;16.02;59.00
706;BME280;21234;48.690;9.016;2023-04-21T11:47:46;95561.69;;;16.35;61.41
706;BME280;21234;48.690;9.016;2023-04-21T11:50:28;95563.50;;;16.40;58.33
706;BME280;21234;48.690;9.016;2023-04-21T11:52:55;95567.78;;;16.46;58.96
706;BME280;21234;48.690;9.016;2023-04-21T11:55:22;95566.47;;;16.43;58.00
706;BME280;21234;48.690;9.016;2023-04-21T11:57:49;95559.03;;;16.58;59.39
706;BME280;21234;48.690;9.016;2023-04-21T12:00:18;95567.03;;;16.27;59.54
706;BME280;21234;48.690;9.016;2023-04-21T12:02:53;95566.44;;;16.16;56.81
706;BME280;21234;48.690;9.016;2023-04-21T12:05:21;95565.34;;;16.31;58.54
706;BME280;21234;48.690;9.016;2023-04-21T12:07:48;95560.19;;;16.70;58.70
706;BME280;21234;48.690;9.016;2023-04-21T12:10:17;95562.59;;;16.31;57.03
706;BME280;21234;48.690;9.016;2023-04-21T12:12:44;95563.44;;;15.85;59.12
706;BME280;21234;48.690;9.016;2023-04-21T12:15:15;95550.72;;;16.22;60.15
706;BME280;21234;48.690;9.016;2023-04-21T12:17:45;95550.81;;;16.30;58.32
706;BME280;21234;48.690;9.016;2023-04-21T12:20:14;95543.09;;;16.46;57.76
706;BME280;21234;48.690;9.016;2023-04-21T12:22:41;95543.28;;;16.36;56.92
706;BME280;21234;48.690;9.016;2023-04-21T12:25:08;95544.03;;;16.69;55.80
706;BME280;21234;48.690;9.016;2023-04-21T12:27:35;95543.94;;;16.74;57.50
706;BME280;21234;48.690;9.016;2023-04-21T12:30:02;95530.09;;;16.52;55.93
706;BME280;21234;48.690;9.016;2023-04-21T12:32:29;95534.16;;;16.54;57.24
706;BME280;21234;48.690;9.016;2023-04-21T12:34:57;95525.13;;;16.67;58.48
706;BME280;21234;48.690;9.016;2023-04-21T12:37:24;95522.19;;;17.13;57.98
706;BME280;21234;48.690;9.016;2023-04-21T12:39:51;95530.75;;;17.70;58.28
706;BME280;21234;48.690;9.016;2023-04-21T12:42:18;95519.81;;;18.10;57.74
706;BME280;21234;48.690;9.016;2023-04-21T12:44:44;95527.97;;;18.24;55.66
706;BME280;21234;48.690;9.016;2023-04-21T12:47:11;95524.47;;;17.56;53.20
706;BME280;21234;48.690;9.016;2023-04-21T12:49:38;95523.44;;;16.94;54.73
706;BME280;21234;48.690;9.016;2023-04-21T12:52:06;95528.03;;;16.98;54.67
706;BME280;21234;48.690;9.016;2023-04-21T12:54:33;95528.81;;;17.57;57.18
706;BME280;21234;48.690;9.016;2023-04-21T12:56:59;95525.81;;;17.81;54.87
706;BME280;21234;48.690;9.016;2023-04-21T12:59:26;95534.06;;;18.43;51.54
706;BME280;21234;48.690;9.016;2023-04-21T13:01:53;95516.84;;;17.98;52.06
706;BME280;21234;48.690;9.016;2023-04-21T13:04:20;95527.31;;;18.18;52.59
706;BME280;21234;48.690;9.016;2023-04-21T13:06:47;95517.03;;;18.01;50.50
706;BME280;21234;48.690;9.016;2023-04-21T13:09:15;95507.34;;;18.04;51.75
706;BME280;21234;48.690;9.016;2023-04-21T13:11:42;95511.03;;;18.39;52.26
706;BME280;21234;48.690;9.016;2023-04-21T13:14:08;95512.97;;;18.87;52.18
706;BME280;21234;48.690;9.016;2023-04-21T13:16:35;95510.47;;;19.16;50.20
706;BME280;21234;48.690;9.016;2023-04-21T13:19:02;95507.50;;;19.04;48.59
706;BME280;21234;48.690;9.016;2023-04-21T13:21:29;95513.50;;;19.06;48.68
706;BME280;21234;48.690;9.016;2023-04-21T13:23:56;95514.03;;;19.42;48.96
706;BME280;21234;48.690;9.016;2023-04-21T13:26:24;95507.53;;;19.38;49.75